createdAt,value
2023-10-12T00:00:22.850Z,99985.30
2023-10-12T00:02:59.408Z,99985.58
2023-10-12T00:05:18.418Z,99984.73
2023-10-12T00:07:43.972Z,99980.95
2023-10-12T00:10:15.221Z,99978.21
2023-10-12T00:12:27.962Z,99978.91
2023-10-12T00:14:42.661Z,99974.89
2023-10-12T00:16:56.164Z,99974.78
2023-10-12T00:19:13.264Z,99975.33
2023-10-12T00:21:28.701Z,99972.81
2023-10-12T00:23:42.983Z,99972.16
2023-10-12T00:25:56.008Z,99967.95
2023-10-12T00:28:08.970Z,99965.34
2023-10-12T00:30:22.153Z,99964.73
2023-10-12T00:32:35.323Z,99962.70
2023-10-12T00:34:48.865Z,99956.80
2023-10-12T00:37:04.279Z,99954.06
2023-10-12T00:39:16.962Z,99951.25
2023-10-12T00:41:30.847Z,99951.79
2023-10-12T00:44:23.848Z,99953.95
2023-10-12T00:46:39.982Z,99952.71
2023-10-12T00:49:13.858Z,99951.30
2023-10-12T00:51:27.344Z,99947.02
2023-10-12T00:53:39.998Z,99944.80
2023-10-12T00:55:53.131Z,99945.75
2023-10-12T00:58:06.927Z,99944.05
2023-10-12T01:00:20.181Z,99941.55
2023-10-12T01:02:40.946Z,99941.90
2023-10-12T01:04:54.736Z,99931.91
2023-10-12T01:07:12.471Z,99930.96
2023-10-12T01:09:27.309Z,99923.98
2023-10-12T01:11:39.999Z,99916.16
2023-10-12T01:13:59.833Z,99909.98
2023-10-12T01:16:24.541Z,99917.02
2023-10-12T01:18:39.584Z,99909.68
2023-10-12T01:20:52.282Z,99905.81
2023-10-12T01:23:04.968Z,99904.71
2023-10-12T01:25:22.846Z,99895.90
2023-10-12T01:27:35.679Z,99898.14
2023-10-12T01:29:49.556Z,99898.86
2023-10-12T01:32:10.836Z,99895.92
2023-10-12T01:34:26.169Z,99899.19
2023-10-12T01:36:39.169Z,99894.87
2023-10-12T01:38:52.718Z,99895.05
2023-10-12T01:41:10.861Z,99895.98
2023-10-12T01:43:28.546Z,99892.90
2023-10-12T01:45:44.991Z,99890.17
2023-10-12T01:48:06.608Z,99892.36
2023-10-12T01:50:19.275Z,99888.92
2023-10-12T01:52:31.959Z,99888.61
2023-10-12T01:54:45.556Z,99887.87
2023-10-12T01:56:58.217Z,99883.87
2023-10-12T01:59:10.920Z,99888.21
2023-10-12T02:01:26.023Z,99884.81
2023-10-12T02:03:45.129Z,99885.23
2023-10-12T02:06:06.027Z,99884.98
2023-10-12T02:08:21.829Z,99883.42
2023-10-12T02:10:42.690Z,99884.61
2023-10-12T02:12:56.793Z,99888.65
2023-10-12T02:15:16.124Z,99888.69
2023-10-12T02:17:28.850Z,99885.35
2023-10-12T02:19:44.249Z,99885.58
2023-10-12T02:22:02.563Z,99888.71
2023-10-12T02:24:15.966Z,99889.11
2023-10-12T02:26:37.418Z,99891.59
2023-10-12T02:28:54.670Z,99897.52
2023-10-12T02:31:07.463Z,99898.65
2023-10-12T02:33:25.304Z,99906.64
2023-10-12T02:35:38.312Z,99905.70
2023-10-12T02:37:51.561Z,99900.07
2023-10-12T02:40:05.384Z,99904.10
2023-10-12T02:42:19.075Z,99900.89
2023-10-12T02:44:35.428Z,99901.76
2023-10-12T02:47:10.689Z,99902.54
2023-10-12T02:49:25.446Z,99898.48
2023-10-12T02:51:40.224Z,99897.38
2023-10-12T02:53:52.958Z,99892.67
2023-10-12T02:56:06.441Z,99892.29
2023-10-12T02:58:20.638Z,99891.52
2023-10-12T03:00:39.851Z,99888.68
2023-10-12T03:02:54.647Z,99890.74
2023-10-12T03:05:08.604Z,99888.89
2023-10-12T03:07:25.218Z,99890.64
2023-10-12T03:09:38.513Z,99890.97
2023-10-12T03:11:57.378Z,99887.16
2023-10-12T03:14:17.786Z,99886.48
2023-10-12T03:16:42.426Z,99888.70
2023-10-12T03:19:13.959Z,99887.87
2023-10-12T03:21:28.899Z,99883.75
2023-10-12T03:23:47.368Z,99876.23
2023-10-12T03:26:30.893Z,99872.34
2023-10-12T03:28:45.413Z,99871.73
2023-10-12T03:31:16.382Z,99870.60
2023-10-12T03:33:30.029Z,99868.99
2023-10-12T03:36:04.026Z,99869.48
2023-10-12T03:38:20.098Z,99867.59
2023-10-12T03:40:51.910Z,99872.40
2023-10-12T03:43:14.159Z,99872.30
2023-10-12T03:45:35.551Z,99869.41
2023-10-12T03:48:03.793Z,99869.17
2023-10-12T03:50:19.700Z,99863.29
2023-10-12T03:52:47.411Z,99858.38
2023-10-12T03:55:00.003Z,99865.16
2023-10-12T03:57:24.128Z,99866.49
2023-10-12T04:00:00.069Z,99864.20
2023-10-12T04:02:16.485Z,99860.37
2023-10-12T04:04:46.704Z,99867.54
2023-10-12T04:07:02.310Z,99866.77
2023-10-12T04:09:16.478Z,99866.63
2023-10-12T04:11:51.664Z,99866.68
2023-10-12T04:14:19.536Z,99865.02
2023-10-12T04:16:41.572Z,99871.03
2023-10-12T04:18:54.951Z,99873.30
2023-10-12T04:21:08.618Z,99868.34
2023-10-12T04:23:40.093Z,99868.82
2023-10-12T04:26:12.692Z,99867.98
2023-10-12T04:28:25.360Z,99871.27
2023-10-12T04:31:03.746Z,99868.14
2023-10-12T04:33:19.207Z,99866.20
2023-10-12T04:35:50.207Z,99865.58
2023-10-12T04:38:09.991Z,99865.45
2023-10-12T04:40:37.977Z,99866.73
2023-10-12T04:42:54.590Z,99869.06
2023-10-12T04:45:25.040Z,99868.73
2023-10-12T04:47:37.859Z,99878.39
2023-10-12T04:49:50.522Z,99876.89
2023-10-12T04:52:10.215Z,99878.27
2023-10-12T04:54:25.737Z,99880.64
2023-10-12T04:56:38.362Z,99888.90
2023-10-12T04:58:57.881Z,99885.24
2023-10-12T05:01:21.279Z,99887.95
2023-10-12T05:03:35.627Z,99890.55
2023-10-12T05:06:11.993Z,99891.63
2023-10-12T05:08:24.621Z,99886.61
2023-10-12T05:10:40.604Z,99890.48
2023-10-12T05:12:59.228Z,99888.72
2023-10-12T05:15:12.948Z,99893.64
2023-10-12T05:17:25.906Z,99892.59
2023-10-12T05:19:39.449Z,99893.77
2023-10-12T05:21:55.349Z,99896.52
2023-10-12T05:24:09.980Z,99901.32
2023-10-12T05:26:26.922Z,99902.60
2023-10-12T05:28:49.146Z,99904.38
2023-10-12T05:31:08.158Z,99906.55
2023-10-12T05:33:36.321Z,99908.60
2023-10-12T05:35:54.005Z,99908.91
2023-10-12T05:38:08.180Z,99912.98
2023-10-12T05:40:21.892Z,99915.55
2023-10-12T05:42:40.646Z,99917.45
2023-10-12T05:45:06.514Z,99918.80
2023-10-12T05:47:29.557Z,99923.16
2023-10-12T05:49:42.737Z,99921.33
2023-10-12T05:51:55.973Z,99922.59
2023-10-12T05:54:08.984Z,99926.59
2023-10-12T05:56:21.701Z,99925.20
2023-10-12T05:58:35.601Z,99929.98
2023-10-12T06:00:53.535Z,99934.98
2023-10-12T06:03:06.757Z,99934.51
2023-10-12T06:05:19.369Z,99939.41
2023-10-12T06:07:32.037Z,99946.73
2023-10-12T06:09:44.814Z,99945.40
2023-10-12T06:11:57.625Z,99947.16
2023-10-12T06:14:10.763Z,99950.66
2023-10-12T06:16:25.256Z,99956.16
2023-10-12T06:18:39.018Z,99957.80
2023-10-12T06:21:10.979Z,99962.50
2023-10-12T06:23:23.626Z,99968.56
2023-10-12T06:25:47.454Z,99965.70
2023-10-12T06:28:15.394Z,99966.37
2023-10-12T06:30:28.195Z,99966.67
2023-10-12T06:32:41.016Z,99964.90
2023-10-12T06:35:13.371Z,99972.58
2023-10-12T06:37:52.025Z,99970.25
2023-10-12T06:40:43.306Z,99976.48
2023-10-12T06:43:14.829Z,99972.56
2023-10-12T06:45:29.194Z,99975.55
2023-10-12T06:47:42.825Z,99987.05
2023-10-12T06:50:01.245Z,99989.03
2023-10-12T06:52:20.171Z,99982.71
2023-10-12T06:54:39.204Z,99982.91
2023-10-12T06:56:52.759Z,99986.29
2023-10-12T06:59:09.720Z,99985.27
2023-10-12T07:01:28.806Z,99994.24
2023-10-12T07:03:41.814Z,99998.48
2023-10-12T07:05:54.512Z,100001.69
2023-10-12T07:08:09.740Z,100003.69
2023-10-12T07:10:29.433Z,100005.60
2023-10-12T07:12:45.486Z,100015.50
2023-10-12T07:14:58.228Z,100016.55
2023-10-12T07:17:10.847Z,100020.41
2023-10-12T07:19:28.568Z,100026.17
2023-10-12T07:21:41.258Z,100024.23
2023-10-12T07:23:53.908Z,100030.25
2023-10-12T07:26:13.771Z,100037.80
2023-10-12T07:28:35.345Z,100045.45
2023-10-12T07:31:06.845Z,100043.30
2023-10-12T07:33:23.447Z,100053.90
2023-10-12T07:35:37.532Z,100055.64
2023-10-12T07:37:50.241Z,100054.89
2023-10-12T07:40:18.642Z,100057.17
2023-10-12T07:42:32.735Z,100065.12
2023-10-12T07:44:54.918Z,100068.42
2023-10-12T07:47:20.102Z,100073.08
2023-10-12T07:49:36.102Z,100071.29
2023-10-12T07:52:05.588Z,100073.25
2023-10-12T07:54:38.208Z,100066.12
2023-10-12T07:56:53.991Z,100070.78
2023-10-12T07:59:15.233Z,100073.05
2023-10-12T08:01:29.197Z,100076.48
2023-10-12T08:03:43.238Z,100083.68
2023-10-12T08:06:00.278Z,100089.48
2023-10-12T08:08:34.609Z,100091.41
2023-10-12T08:10:47.228Z,100090.08
2023-10-12T08:13:06.156Z,100089.59
2023-10-12T08:15:18.812Z,100097.27
2023-10-12T08:17:34.807Z,100100.37
2023-10-12T08:19:47.964Z,100107.35
2023-10-12T08:22:01.679Z,100109.25
2023-10-12T08:24:20.540Z,100109.13
2023-10-12T08:26:39.362Z,100108.92
2023-10-12T08:28:56.769Z,100107.81
2023-10-12T08:31:17.098Z,100112.00
2023-10-12T08:33:48.603Z,100114.92
2023-10-12T08:36:16.314Z,100117.35
2023-10-12T08:38:34.707Z,100118.67
2023-10-12T08:41:16.385Z,100117.84
2023-10-12T08:43:49.937Z,100121.48
2023-10-12T08:46:08.075Z,100124.71
2023-10-12T08:48:20.875Z,100120.02
2023-10-12T08:50:59.493Z,100123.23
2023-10-12T08:53:20.021Z,100124.55
2023-10-12T08:55:33.213Z,100121.42
2023-10-12T08:58:04.462Z,100126.95
2023-10-12T09:00:23.398Z,100126.98
2023-10-12T09:02:40.258Z,100133.13
2023-10-12T09:04:54.660Z,100134.88
2023-10-12T09:07:07.426Z,100135.59
2023-10-12T09:09:38.760Z,100144.36
2023-10-12T09:12:01.008Z,100147.38
2023-10-12T09:14:18.510Z,100138.69
2023-10-12T09:16:31.675Z,100137.63
2023-10-12T09:18:46.658Z,100141.41
2023-10-12T09:21:19.098Z,100143.48
2023-10-12T09:23:53.871Z,100148.29
2023-10-12T09:26:10.279Z,100146.28
2023-10-12T09:28:27.284Z,100148.17
2023-10-12T09:30:46.154Z,100150.99
2023-10-12T09:33:30.145Z,100159.07
2023-10-12T09:35:42.829Z,100168.07
2023-10-12T09:37:55.673Z,100162.04
2023-10-12T09:40:25.257Z,100170.55
2023-10-12T09:42:39.412Z,100168.97
2023-10-12T09:45:02.657Z,100154.93
2023-10-12T09:47:17.042Z,100169.04
2023-10-12T09:49:31.418Z,100177.14
2023-10-12T09:51:49.041Z,100184.13
2023-10-12T09:54:10.664Z,100186.80
2023-10-12T09:56:29.445Z,100195.92
2023-10-12T09:58:52.549Z,100203.76
2023-10-12T10:01:16.693Z,100210.38
2023-10-12T10:03:38.825Z,100211.12
2023-10-12T10:05:57.166Z,100212.36
2023-10-12T10:08:10.053Z,100217.81
2023-10-12T10:10:31.852Z,100217.28
2023-10-12T10:12:44.687Z,100217.48
2023-10-12T10:15:01.203Z,100220.73
2023-10-12T10:17:19.864Z,100215.91
2023-10-12T10:19:33.707Z,100222.64
2023-10-12T10:21:52.071Z,100221.39
2023-10-12T10:24:13.532Z,100221.77
2023-10-12T10:26:31.711Z,100219.39
2023-10-12T10:28:55.830Z,100221.42
2023-10-12T10:31:12.696Z,100221.13
2023-10-12T10:33:26.176Z,100218.22
2023-10-12T10:35:58.798Z,100219.45
2023-10-12T10:38:12.400Z,100218.59
2023-10-12T10:40:47.406Z,100223.90
2023-10-12T10:43:06.541Z,100222.86
2023-10-12T10:45:20.485Z,100220.54
2023-10-12T10:47:33.349Z,100224.70
2023-10-12T10:49:49.942Z,100225.66
2023-10-12T10:52:07.753Z,100220.88
2023-10-12T10:54:21.194Z,100219.42
2023-10-12T10:56:36.442Z,100218.54
2023-10-12T10:58:49.796Z,100221.05
2023-10-12T11:01:06.911Z,100220.96
2023-10-12T11:03:19.843Z,100221.63
2023-10-12T11:05:35.458Z,100225.39
2023-10-12T11:07:52.259Z,100222.17
2023-10-12T11:10:15.312Z,100224.36
2023-10-12T11:12:32.935Z,100222.02
2023-10-12T11:14:53.648Z,100221.73
2023-10-12T11:17:06.606Z,100219.34
2023-10-12T11:19:24.889Z,100219.50
2023-10-12T11:21:43.504Z,100219.47
2023-10-12T11:24:10.799Z,100220.34
2023-10-12T11:26:23.562Z,100221.11
2023-10-12T11:28:38.538Z,100220.09
2023-10-12T11:31:03.190Z,100219.81
2023-10-12T11:33:18.108Z,100216.48
2023-10-12T11:35:45.506Z,100218.70
2023-10-12T11:37:58.897Z,100225.83
2023-10-12T11:40:28.347Z,100223.07
2023-10-12T11:42:54.378Z,100228.93
2023-10-12T11:45:12.689Z,100223.23
2023-10-12T11:47:25.455Z,100222.81
2023-10-12T11:49:57.695Z,100226.04
2023-10-12T11:52:16.441Z,100227.96
2023-10-12T11:54:34.031Z,100227.58
2023-10-12T11:56:50.850Z,100227.11
2023-10-12T11:59:06.613Z,100230.56
2023-10-12T12:01:19.831Z,100228.67
2023-10-12T12:03:41.110Z,100230.60
2023-10-12T12:05:54.226Z,100231.73
2023-10-12T12:08:07.622Z,100229.48
2023-10-12T12:10:27.465Z,100226.14
2023-10-12T12:12:40.288Z,100226.05
2023-10-12T12:14:52.956Z,100222.85
2023-10-12T12:17:05.757Z,100220.14
2023-10-12T12:19:25.272Z,100220.00
2023-10-12T12:21:38.764Z,100215.11
2023-10-12T12:23:51.749Z,100214.66
2023-10-12T12:26:15.326Z,100217.42
2023-10-12T12:28:33.280Z,100215.41
2023-10-12T12:30:59.969Z,100217.30
2023-10-12T12:33:18.846Z,100215.86
2023-10-12T12:35:31.918Z,100220.60
2023-10-12T12:37:44.510Z,100219.42
2023-10-12T12:40:23.057Z,100222.71
2023-10-12T12:42:35.636Z,100228.48
2023-10-12T12:44:48.240Z,100228.14
2023-10-12T12:47:01.046Z,100224.62
2023-10-12T12:49:15.010Z,100221.58
2023-10-12T12:51:27.770Z,100218.45
2023-10-12T12:53:40.617Z,100214.35
2023-10-12T12:55:53.267Z,100209.80
2023-10-12T12:58:07.240Z,100207.05
2023-10-12T13:00:23.184Z,100207.77
2023-10-12T13:02:37.194Z,100205.14
2023-10-12T13:04:50.878Z,100214.05
2023-10-12T13:07:10.033Z,100211.97
2023-10-12T13:09:35.530Z,100231.06
2023-10-12T13:11:48.575Z,100239.50
2023-10-12T13:14:01.329Z,100227.56
2023-10-12T13:16:14.169Z,100220.44
2023-10-12T13:18:30.607Z,100208.50
2023-10-12T13:20:47.728Z,100205.71
2023-10-12T13:23:00.641Z,100200.71
2023-10-12T13:25:14.993Z,100199.55
2023-10-12T13:27:30.529Z,100199.27
2023-10-12T13:29:44.519Z,100203.52
2023-10-12T13:31:57.408Z,100215.83
2023-10-12T13:34:11.768Z,100222.42
2023-10-12T13:36:24.572Z,100228.34
2023-10-12T13:38:38.508Z,100231.30
2023-10-12T13:40:51.519Z,100232.34
2023-10-12T13:43:19.576Z,100232.21
2023-10-12T13:45:33.232Z,100231.05
2023-10-12T13:47:49.449Z,100234.27
2023-10-12T13:50:02.115Z,100235.08
2023-10-12T13:52:14.869Z,100227.67
2023-10-12T13:54:41.722Z,100228.34
2023-10-12T13:56:57.387Z,100234.89
2023-10-12T13:59:10.310Z,100233.23
2023-10-12T14:01:24.859Z,100240.35
2023-10-12T14:03:39.798Z,100240.13
2023-10-12T14:05:52.681Z,100238.43
2023-10-12T14:08:05.464Z,100243.39
2023-10-12T14:10:19.910Z,100244.18
2023-10-12T14:12:34.216Z,100247.79
2023-10-12T14:14:46.875Z,100253.30
2023-10-12T14:16:59.657Z,100250.51
2023-10-12T14:19:12.527Z,100250.77
2023-10-12T14:21:30.707Z,100257.71
2023-10-12T14:23:49.244Z,100259.58
2023-10-12T14:26:01.829Z,100253.95
2023-10-12T14:28:18.396Z,100256.98
2023-10-12T14:30:31.104Z,100255.33
2023-10-12T14:32:43.796Z,100260.92
2023-10-12T14:34:56.460Z,100259.26
2023-10-12T14:37:14.729Z,100257.76
2023-10-12T14:39:31.149Z,100259.33
2023-10-12T14:41:43.904Z,100268.96
2023-10-12T14:43:56.935Z,100269.33
2023-10-12T14:46:11.816Z,100278.40
2023-10-12T14:48:25.114Z,100281.77
2023-10-12T14:50:39.246Z,100286.61
2023-10-12T14:52:54.905Z,100289.14
2023-10-12T14:55:14.381Z,100286.84
2023-10-12T14:57:28.251Z,100281.29
2023-10-12T14:59:41.576Z,100284.84
2023-10-12T15:01:54.346Z,100282.42
2023-10-12T15:04:08.661Z,100276.97
2023-10-12T15:06:21.791Z,100281.38
2023-10-12T15:08:37.484Z,100282.61
2023-10-12T15:10:50.426Z,100279.63
2023-10-12T15:13:05.183Z,100278.36
2023-10-12T15:15:28.152Z,100275.23
2023-10-12T15:17:40.842Z,100279.24
2023-10-12T15:19:54.247Z,100283.55
2023-10-12T15:22:07.661Z,100283.77
2023-10-12T15:24:20.557Z,100284.48
2023-10-12T15:26:33.964Z,100286.02
2023-10-12T15:28:50.455Z,100284.19
2023-10-12T15:31:05.219Z,100286.21
2023-10-12T15:33:18.059Z,100288.86
2023-10-12T15:35:32.028Z,100286.02
2023-10-12T15:37:47.446Z,100290.98
2023-10-12T15:40:01.251Z,100294.01
2023-10-12T15:42:14.127Z,100292.69
2023-10-12T15:44:27.838Z,100290.61
2023-10-12T15:46:41.372Z,100289.37
2023-10-12T15:48:54.163Z,100295.55
2023-10-12T15:51:18.767Z,100292.57
2023-10-12T15:53:31.534Z,100292.54
2023-10-12T15:55:45.832Z,100292.89
2023-10-12T15:57:58.588Z,100294.43
2023-10-12T16:00:23.679Z,100292.02
2023-10-12T16:02:37.347Z,100288.61
2023-10-12T16:04:50.369Z,100292.79
2023-10-12T16:07:06.944Z,100291.56
2023-10-12T16:09:22.033Z,100289.88
2023-10-12T16:11:39.605Z,100285.90
2023-10-12T16:13:53.506Z,100283.70
2023-10-12T16:16:13.382Z,100289.76
2023-10-12T16:18:26.526Z,100293.17
2023-10-12T16:20:39.139Z,100297.00
2023-10-12T16:22:51.936Z,100298.13
2023-10-12T16:25:08.359Z,100297.12
2023-10-12T16:27:21.171Z,100302.40
2023-10-12T16:29:45.048Z,100306.80
2023-10-12T16:32:06.312Z,100309.09
2023-10-12T16:34:20.116Z,100311.27
2023-10-12T16:36:36.887Z,100314.61
2023-10-12T16:38:51.995Z,100316.62
2023-10-12T16:41:08.830Z,100321.09
2023-10-12T16:43:24.874Z,100323.30
2023-10-12T16:45:37.616Z,100328.55
2023-10-12T16:47:51.248Z,100330.48
2023-10-12T16:50:06.002Z,100328.05
2023-10-12T16:52:18.704Z,100328.11
2023-10-12T16:54:31.562Z,100330.13
2023-10-12T16:56:45.542Z,100328.17
2023-10-12T16:58:58.401Z,100329.08
2023-10-12T17:01:15.110Z,100330.11
2023-10-12T17:03:31.153Z,100331.66
2023-10-12T17:05:45.917Z,100332.91
2023-10-12T17:07:58.963Z,100335.33
2023-10-12T17:10:24.676Z,100335.55
2023-10-12T17:12:38.948Z,100334.35
2023-10-12T17:14:52.760Z,100333.33
2023-10-12T17:17:06.065Z,100330.59
2023-10-12T17:19:19.151Z,100332.13
2023-10-12T17:21:33.410Z,100335.45
2023-10-12T17:23:46.592Z,100332.45
2023-10-12T17:26:00.050Z,100334.27
2023-10-12T17:28:13.124Z,100333.50
2023-10-12T17:30:25.780Z,100334.46
2023-10-12T17:32:40.089Z,100338.95
2023-10-12T17:34:54.768Z,100333.90
2023-10-12T17:37:08.199Z,100332.52
2023-10-12T17:39:21.683Z,100337.19
2023-10-12T17:41:34.493Z,100333.98
2023-10-12T17:43:52.764Z,100336.75
2023-10-12T17:46:05.483Z,100334.85
2023-10-12T17:48:20.636Z,100338.29
2023-10-12T17:50:39.307Z,100336.48
2023-10-12T17:52:55.510Z,100332.64
2023-10-12T17:55:09.430Z,100331.32
2023-10-12T17:57:22.286Z,100328.45
2023-10-12T17:59:34.934Z,100332.10
2023-10-12T18:01:48.628Z,100326.49
2023-10-12T18:04:01.944Z,100334.23
2023-10-12T18:06:14.866Z,100338.63
2023-10-12T18:08:27.446Z,100337.91
2023-10-12T18:10:44.197Z,100340.99
2023-10-12T18:12:57.284Z,100347.63
2023-10-12T18:15:10.541Z,100341.95
2023-10-12T18:17:26.505Z,100339.71
2023-10-12T18:19:39.890Z,100340.71
2023-10-12T18:21:52.936Z,100344.73
2023-10-12T18:24:05.948Z,100345.34
2023-10-12T18:26:19.813Z,100342.98
2023-10-12T18:28:34.050Z,100343.45
2023-10-12T18:30:58.314Z,100345.45
2023-10-12T18:33:14.532Z,100348.70
2023-10-12T18:35:27.208Z,100352.85
2023-10-12T18:37:40.478Z,100351.48
2023-10-12T18:39:53.568Z,100347.23
2023-10-12T18:42:06.520Z,100348.16
2023-10-12T18:44:19.257Z,100351.60
2023-10-12T18:46:32.246Z,100351.14
2023-10-12T18:48:45.411Z,100352.03
2023-10-12T18:51:00.121Z,100352.67
2023-10-12T18:53:12.715Z,100353.69
2023-10-12T18:55:25.341Z,100354.52
2023-10-12T18:57:40.770Z,100355.27
2023-10-12T18:59:53.711Z,100355.67
2023-10-12T19:02:06.500Z,100353.83
2023-10-12T19:04:20.605Z,100353.34
2023-10-12T19:06:35.291Z,100353.62
2023-10-12T19:08:47.984Z,100353.55
2023-10-12T19:11:11.295Z,100348.48
2023-10-12T19:13:24.807Z,100347.42
2023-10-12T19:15:37.852Z,100349.46
2023-10-12T19:17:50.494Z,100350.36
2023-10-12T19:20:05.032Z,100353.78
2023-10-12T19:22:17.738Z,100356.42
2023-10-12T19:24:30.674Z,100356.59
2023-10-12T19:26:43.541Z,100360.29
2023-10-12T19:28:56.326Z,100365.58
2023-10-12T19:31:13.689Z,100364.73
2023-10-12T19:33:27.148Z,100366.17
2023-10-12T19:35:41.936Z,100367.29
2023-10-12T19:37:55.444Z,100369.16
2023-10-12T19:40:17.213Z,100368.29
2023-10-12T19:42:30.119Z,100370.19
2023-10-12T19:44:44.439Z,100366.05
2023-10-12T19:46:57.319Z,100365.83
2023-10-12T19:49:11.883Z,100364.73
2023-10-12T19:51:24.729Z,100366.42
2023-10-12T19:53:38.202Z,100365.90
2023-10-12T19:55:51.156Z,100360.86
2023-10-12T19:58:06.809Z,100364.21
2023-10-12T20:00:26.999Z,100366.98
2023-10-12T20:02:45.204Z,100369.97
2023-10-12T20:04:58.067Z,100370.98
2023-10-12T20:07:12.183Z,100366.37
2023-10-12T20:09:31.200Z,100364.92
2023-10-12T20:11:43.959Z,100366.20
2023-10-12T20:13:56.946Z,100365.53
2023-10-12T20:16:13.015Z,100362.67
2023-10-12T20:18:25.849Z,100366.94
2023-10-12T20:20:42.115Z,100365.71
2023-10-12T20:22:57.150Z,100362.29
2023-10-12T20:25:13.153Z,100362.15
2023-10-12T20:27:26.059Z,100354.77
2023-10-12T20:29:40.949Z,100352.02
2023-10-12T20:31:54.094Z,100350.52
2023-10-12T20:34:06.962Z,100348.08
2023-10-12T20:36:19.525Z,100345.95
2023-10-12T20:38:34.185Z,100352.33
2023-10-12T20:40:47.868Z,100351.12
2023-10-12T20:43:00.654Z,100353.36
2023-10-12T20:45:13.505Z,100353.18
2023-10-12T20:47:26.386Z,100355.48
2023-10-12T20:49:40.674Z,100354.77
2023-10-12T20:51:53.508Z,100355.83
2023-10-12T20:54:13.692Z,100354.05
2023-10-12T20:56:30.095Z,100354.15
2023-10-12T20:58:44.148Z,100352.60
2023-10-12T21:01:04.451Z,100354.88
2023-10-12T21:03:23.651Z,100356.73
2023-10-12T21:05:38.120Z,100357.89
2023-10-12T21:07:53.329Z,100356.26
2023-10-12T21:10:13.497Z,100348.27
2023-10-12T21:12:28.284Z,100344.10
2023-10-12T21:14:45.008Z,100343.22
2023-10-12T21:16:58.036Z,100341.23
2023-10-12T21:19:21.735Z,100340.28
2023-10-12T21:21:34.771Z,100341.07
2023-10-12T21:23:47.520Z,100344.39
2023-10-12T21:26:03.684Z,100346.63
2023-10-12T21:28:16.923Z,100344.92
2023-10-12T21:30:37.696Z,100338.50
2023-10-12T21:32:50.707Z,100339.27
2023-10-12T21:35:08.659Z,100344.13
2023-10-12T21:37:21.525Z,100339.83
2023-10-12T21:39:37.163Z,100337.05
2023-10-12T21:41:51.995Z,100335.33
2023-10-12T21:44:09.033Z,100333.46
2023-10-12T21:46:23.083Z,100331.45
2023-10-12T21:48:36.021Z,100334.34
2023-10-12T21:50:48.687Z,100333.07
2023-10-12T21:53:02.153Z,100330.63
2023-10-12T21:55:15.943Z,100330.59
2023-10-12T21:57:31.165Z,100333.79
2023-10-12T21:59:43.855Z,100334.05
2023-10-12T22:02:14.744Z,100333.76
2023-10-12T22:04:35.579Z,100332.26
2023-10-12T22:06:51.768Z,100333.20
2023-10-12T22:09:05.875Z,100332.38
2023-10-12T22:11:21.712Z,100328.18
2023-10-12T22:13:52.824Z,100332.05
2023-10-12T22:16:05.700Z,100330.63
2023-10-12T22:18:20.328Z,100329.09
2023-10-12T22:20:33.108Z,100326.88
2023-10-12T22:22:46.864Z,100325.10
2023-10-12T22:24:59.508Z,100326.83
2023-10-12T22:27:15.062Z,100330.55
2023-10-12T22:29:29.034Z,100334.15
2023-10-12T22:31:48.340Z,100332.91
2023-10-12T22:34:03.810Z,100330.34
2023-10-12T22:36:20.971Z,100330.61
2023-10-12T22:38:33.982Z,100333.30
2023-10-12T22:40:46.574Z,100330.96
2023-10-12T22:42:59.209Z,100331.80
2023-10-12T22:45:16.754Z,100331.67
2023-10-12T22:47:29.698Z,100330.08
2023-10-12T22:49:42.352Z,100330.59
2023-10-12T22:51:55.048Z,100331.72
2023-10-12T22:54:08.209Z,100332.48
2023-10-12T22:56:21.634Z,100332.02
2023-10-12T22:58:34.264Z,100330.38
2023-10-12T23:00:47.108Z,100331.73
2023-10-12T23:02:59.843Z,100332.86
2023-10-12T23:05:16.119Z,100333.01
2023-10-12T23:07:29.034Z,100336.11
2023-10-12T23:09:43.196Z,100334.93
2023-10-12T23:11:56.520Z,100335.17
2023-10-12T23:14:12.619Z,100334.73
2023-10-12T23:16:36.232Z,100331.93
2023-10-12T23:18:55.297Z,100327.64
2023-10-12T23:21:16.024Z,100329.30
2023-10-12T23:23:29.101Z,100329.25
2023-10-12T23:25:48.404Z,100325.14
2023-10-12T23:28:01.156Z,100326.70
2023-10-12T23:30:20.020Z,100329.70
2023-10-12T23:32:34.016Z,100329.86
2023-10-12T23:34:46.800Z,100327.34
2023-10-12T23:36:59.805Z,100323.71
2023-10-12T23:39:15.700Z,100323.76
2023-10-12T23:41:34.969Z,100320.55
2023-10-12T23:43:56.312Z,100321.70
2023-10-12T23:46:13.246Z,100323.21
2023-10-12T23:48:25.984Z,100326.77
2023-10-12T23:50:51.408Z,100324.33
2023-10-12T23:53:19.069Z,100327.43
2023-10-12T23:55:32.173Z,100323.86
2023-10-12T23:57:44.867Z,100328.29
